createdAt,value
2022-10-26T07:00:09.186Z,10.30
2022-10-26T07:03:18.995Z,13.13
2022-10-26T07:06:28.780Z,13.57
2022-10-26T07:09:38.709Z,10.97
2022-10-26T07:12:49.577Z,6.73
2022-10-26T07:16:00.602Z,10.60
2022-10-26T07:19:10.235Z,6.00
2022-10-26T07:22:19.973Z,5.77
2022-10-26T07:25:30.074Z,6.40
2022-10-26T07:28:39.727Z,6.67
2022-10-26T07:31:51.129Z,4.60
2022-10-26T07:35:00.934Z,6.00
2022-10-26T07:38:10.721Z,5.07
2022-10-26T07:41:20.612Z,7.87
2022-10-26T07:44:30.234Z,7.63
2022-10-26T07:47:44.097Z,6.73
2022-10-26T07:50:53.898Z,5.77
2022-10-26T07:54:03.782Z,6.47
2022-10-26T07:57:13.543Z,4.47
2022-10-26T08:00:23.439Z,6.93
2022-10-26T08:03:34.652Z,5.97
2022-10-26T08:06:44.321Z,6.00
2022-10-26T08:09:54.178Z,5.90
2022-10-26T08:13:04.005Z,6.70
2022-10-26T08:16:14.348Z,5.00
2022-10-26T08:19:25.483Z,4.13
2022-10-26T08:22:35.231Z,4.43
2022-10-26T08:25:44.998Z,4.17
2022-10-26T08:28:54.924Z,5.43
2022-10-26T08:32:04.887Z,6.90
2022-10-26T08:35:16.247Z,6.87
2022-10-26T08:38:34.237Z,7.03
2022-10-26T08:41:46.407Z,5.10
2022-10-26T08:45:03.342Z,6.60
2022-10-26T08:55:34.658Z,5.80
2022-10-26T08:58:53.257Z,6.60
2022-10-26T09:02:03.116Z,4.60
2022-10-26T09:05:17.137Z,6.77
2022-10-26T09:08:36.762Z,4.87
2022-10-26T09:11:58.745Z,5.00
2022-10-26T09:15:18.495Z,5.60
2022-10-26T09:26:55.941Z,5.60
2022-10-26T09:30:15.469Z,6.17
2022-10-26T09:37:59.387Z,4.30
2022-10-26T09:41:19.164Z,4.43
2022-10-26T09:44:35.799Z,6.07
2022-10-26T09:47:52.768Z,2.43
2022-10-26T09:51:04.800Z,5.93
2022-10-26T09:54:17.683Z,4.37
2022-10-26T09:57:27.509Z,6.33
2022-10-26T10:00:39.739Z,8.77
2022-10-26T10:03:49.262Z,6.40
2022-10-26T10:07:13.944Z,6.10
2022-10-26T10:10:24.156Z,5.17
2022-10-26T10:13:36.314Z,3.63
2022-10-26T10:16:55.878Z,6.53
2022-10-26T10:20:12.700Z,5.83
2022-10-26T10:23:28.541Z,5.43
2022-10-26T10:26:57.626Z,7.03
2022-10-26T10:30:22.829Z,7.07
2022-10-26T10:33:38.453Z,7.03
2022-10-26T10:36:48.003Z,6.53
2022-10-26T10:39:59.367Z,5.47
2022-10-26T10:43:14.360Z,5.00
2022-10-26T10:46:27.769Z,4.47
2022-10-26T10:49:39.440Z,4.73
2022-10-26T10:52:49.477Z,4.80
2022-10-26T10:56:15.527Z,6.50
2022-10-26T10:59:42.562Z,6.03
2022-10-26T11:03:05.967Z,4.83
2022-10-26T11:06:20.706Z,7.03
2022-10-26T11:09:33.667Z,6.60
2022-10-26T11:12:48.897Z,3.90
2022-10-26T11:16:03.876Z,8.30
2022-10-26T11:19:20.669Z,5.33
2022-10-26T11:22:36.888Z,3.67
2022-10-26T11:25:52.194Z,5.10
2022-10-26T11:29:07.363Z,3.20
2022-10-26T11:32:22.093Z,5.30
2022-10-26T11:35:36.639Z,5.80
2022-10-26T11:38:57.261Z,6.90
2022-10-26T11:42:14.319Z,6.13
2022-10-26T11:45:26.871Z,6.13
2022-10-26T11:48:42.295Z,5.80
2022-10-26T11:51:57.106Z,5.83
2022-10-26T11:55:11.747Z,5.23
2022-10-26T11:58:25.535Z,5.20
2022-10-26T12:01:35.746Z,6.60
2022-10-26T12:04:50.764Z,2.77
2022-10-26T12:08:05.479Z,3.37
2022-10-26T12:11:35.315Z,5.47
2022-10-26T12:14:52.803Z,4.27
2022-10-26T12:18:10.169Z,5.03
2022-10-26T12:21:19.974Z,5.17
2022-10-26T12:24:35.071Z,4.67
2022-10-26T12:27:54.978Z,7.97
2022-10-26T12:31:31.369Z,4.20
2022-10-26T12:35:01.318Z,5.63
2022-10-26T12:38:49.611Z,7.50
2022-10-26T12:42:27.663Z,5.23
2022-10-26T12:45:38.472Z,4.20
2022-10-26T12:48:49.295Z,6.07
2022-10-26T12:51:59.079Z,5.97
2022-10-26T12:55:31.630Z,7.20
2022-10-26T12:59:04.460Z,4.63
2022-10-26T13:02:41.077Z,4.63
2022-10-26T13:06:12.872Z,6.20
2022-10-26T13:09:25.222Z,3.67
2022-10-26T13:12:48.290Z,6.47
2022-10-26T13:16:00.239Z,8.93
2022-10-26T13:19:26.642Z,5.23
2022-10-26T13:22:46.896Z,5.37
2022-10-26T13:26:05.603Z,4.07
2022-10-26T13:29:16.723Z,5.60
2022-10-26T13:32:26.230Z,4.17
2022-10-26T13:35:44.665Z,4.70
2022-10-26T13:38:55.241Z,4.87
2022-10-26T13:42:09.960Z,5.57
2022-10-26T13:45:23.642Z,4.47
2022-10-26T13:48:38.871Z,5.13
2022-10-26T13:51:52.831Z,6.13
2022-10-26T13:55:09.020Z,4.83
2022-10-26T13:58:23.902Z,6.17
2022-10-26T14:01:34.091Z,3.93
2022-10-26T14:04:47.726Z,5.33
2022-10-26T14:08:00.037Z,5.37
2022-10-26T14:11:13.669Z,7.10
2022-10-26T14:14:26.975Z,3.47
2022-10-26T14:17:37.033Z,4.83
2022-10-26T14:20:50.886Z,4.83
2022-10-26T14:24:07.505Z,3.80
2022-10-26T14:27:18.648Z,3.77
2022-10-26T14:30:30.855Z,4.17
2022-10-26T14:33:40.526Z,5.70
2022-10-26T14:36:53.920Z,4.53
2022-10-26T14:40:07.994Z,6.73
2022-10-26T14:43:21.637Z,11.10
2022-10-26T14:46:36.231Z,6.63
2022-10-26T14:49:47.325Z,4.40
2022-10-26T14:53:00.780Z,4.93
2022-10-26T14:56:24.007Z,4.97
2022-10-26T14:59:33.613Z,3.17
2022-10-26T15:02:44.753Z,4.40
2022-10-26T15:05:54.581Z,5.13
2022-10-26T15:09:06.882Z,6.47
2022-10-26T15:12:23.468Z,5.57
2022-10-26T15:15:35.251Z,5.03
2022-10-26T15:18:48.033Z,7.13
2022-10-26T15:21:58.213Z,4.47
2022-10-26T15:25:08.725Z,6.60
2022-10-26T15:28:26.080Z,8.90
2022-10-26T15:31:35.816Z,7.17
2022-10-26T15:34:49.728Z,8.17
2022-10-26T15:38:00.917Z,8.50
2022-10-26T15:41:17.526Z,6.37
2022-10-26T15:44:30.982Z,6.80
2022-10-26T15:47:41.506Z,4.60
2022-10-26T15:50:56.805Z,7.50
2022-10-26T15:54:06.806Z,11.23
2022-10-26T15:57:19.260Z,7.77
2022-10-26T16:00:32.159Z,7.00
2022-10-26T16:03:41.687Z,5.67
2022-10-26T16:06:51.189Z,11.67
2022-10-26T16:10:00.853Z,8.87
2022-10-26T16:13:13.548Z,8.73
2022-10-26T16:16:24.346Z,11.47
2022-10-26T16:19:34.570Z,11.87
2022-10-26T16:22:48.072Z,14.17
2022-10-26T16:25:57.696Z,6.43
2022-10-26T16:29:07.324Z,13.73
2022-10-26T16:32:18.067Z,12.67
2022-10-26T16:35:27.584Z,13.03
2022-10-26T16:38:37.351Z,8.53
2022-10-26T16:41:49.806Z,11.50
2022-10-26T16:45:02.612Z,34.83
2022-10-26T16:48:15.958Z,20.63
2022-10-26T16:51:27.540Z,20.83
2022-10-26T16:54:37.087Z,13.30
2022-10-26T16:57:46.646Z,18.27
2022-10-26T17:00:56.232Z,10.63
2022-10-26T17:04:07.114Z,9.87
2022-10-26T17:07:16.875Z,13.53
2022-10-26T17:10:27.822Z,12.93
2022-10-26T17:13:38.021Z,53.43
2022-10-26T17:16:47.519Z,29.27
2022-10-26T17:19:59.358Z,24.73
2022-10-26T17:23:09.218Z,19.90
2022-10-26T17:26:18.707Z,22.87
2022-10-26T17:29:29.071Z,11.90
2022-10-26T17:32:38.626Z,17.47
2022-10-26T17:35:53.814Z,16.47
2022-10-26T17:39:03.411Z,15.30
2022-10-26T17:42:12.948Z,13.47
2022-10-26T17:45:22.566Z,17.60
2022-10-26T17:48:32.700Z,14.13
2022-10-26T17:51:43.547Z,7.70
2022-10-26T17:54:53.081Z,10.27
2022-10-26T17:58:02.630Z,7.23
2022-10-26T18:01:14.737Z,14.60
2022-10-26T18:04:24.380Z,12.60
2022-10-26T18:07:35.363Z,13.80
2022-10-26T18:10:47.812Z,8.90
2022-10-26T18:13:58.328Z,12.20
2022-10-26T18:17:07.826Z,10.53
2022-10-26T18:20:20.444Z,20.87
2022-10-26T18:23:31.266Z,21.87
2022-10-26T18:26:40.768Z,18.67
2022-10-26T18:29:50.282Z,15.07
2022-10-26T18:32:59.810Z,13.20
2022-10-26T18:36:11.397Z,11.03
2022-10-26T18:39:22.357Z,8.70
2022-10-26T18:42:31.820Z,8.77
2022-10-26T18:45:41.384Z,23.87
2022-10-26T18:48:51.649Z,15.00
2022-10-26T18:52:01.139Z,13.30
2022-10-26T18:55:12.012Z,9.47
2022-10-26T18:58:21.462Z,12.03
2022-10-26T19:01:33.031Z,10.23
2022-10-26T19:04:42.639Z,8.80
2022-10-26T19:07:52.246Z,11.07
2022-10-26T19:11:03.697Z,11.87
2022-10-26T19:14:13.703Z,10.70
2022-10-26T19:17:23.246Z,7.10
2022-10-26T19:20:32.806Z,10.67
2022-10-26T19:23:43.922Z,9.20
2022-10-26T19:26:54.835Z,9.23
2022-10-26T19:30:08.348Z,12.23
2022-10-26T19:33:17.871Z,9.40
2022-10-26T19:36:28.089Z,9.93
2022-10-26T19:39:37.566Z,8.53
2022-10-26T19:42:48.442Z,11.37
2022-10-26T19:45:58.446Z,7.77
2022-10-26T19:49:08.368Z,8.30
